Buoy 21539

sailwx.info

Track history (hours):
 
Tides and Currents Weather Stations Pressure Air Temp Water Temp Dewpoint Dewpoint Depression Visibility Wind Speed Wind Dir Waves Ship Positions

Drifting buoy 21539

Last reported at 2014-Oct-24 10:10 UTC. Time now 2014-Oct-24 12:12 UTC.
Position N 49°24' E 170°05'.

Barometer 1022.0 mb
Water temperature 9.2 ° C

Date/timePositionNaut miles runAvg speedWind from/ knotsBaromVisibWave heightAir tempDewpointWater temp
2014-Oct-24 10:10N 49°24' E 170°05'0 0.0 1022.0 9.2
2014-Oct-24 09:10N 49°24' E 170°05'1 1.5 1022.0 9.2
2014-Oct-24 08:10N 49°24' E 170°08'0 0.0 1021.8 9.2
2014-Oct-24 04:10N 49°24' E 170°08'0 0.0 1021.2 9.3
2014-Oct-24 03:10N 49°24' E 170°08'0 0.0 1020.9 9.3
2014-Oct-24 02:10N 49°24' E 170°08'1 0.3 1020.8 9.3
2014-Oct-23 22:10N 49°25' E 170°09'1 0.1 1021.4 9.2
2014-Oct-23 17:10N 49°25' E 170°09'0 0.0 1019.7 9.2
2014-Oct-23 15:10N 49°25' E 170°09'0 0.0 1019.3 9.2
2014-Oct-23 14:10N 49°25' E 170°09'0 0.0 1019.3 9.2
2014-Oct-23 10:10N 49°25' E 170°09'0 0.0 1018.0 9.3
2014-Oct-23 09:10N 49°25' E 170°09'1 0.4 1017.2 9.2
2014-Oct-23 06:10N 49°26' E 170°11'0 0.0 1015.8 9.2
2014-Oct-23 05:10N 49°26' E 170°11'7 1.5 1015.1 9.2
2014-Oct-23 00:10N 49°33' E 170°13'0 0.0 1016.2 9.2
2014-Oct-22 22:10N 49°33' E 170°13'0 0.0 1016.2 9.2
2014-Oct-22 19:10N 49°33' E 170°13'0 0.0 1016.5 9.2
2014-Oct-22 17:10N 49°33' E 170°13'0 0.0 1016.7 9.1
2014-Oct-22 16:10N 49°33' E 170°13'0 0.0 1016.8 9.1
2014-Oct-22 13:10N 49°33' E 170°13'0 0.0 1019.0 9.1
2014-Oct-22 09:10N 49°33' E 170°13'0 0.0 1020.6 9.2
2014-Oct-22 07:10N 49°33' E 170°13'0 0.0 1021.8 9.2
2014-Oct-22 03:10N 49°33' E 170°13'0 0.0 1022.8 9.1
2014-Oct-22 01:10N 49°33' E 170°13'0 0.0 1024.0 9.1
2014-Oct-21 17:10N 49°33' E 170°13'2 1.2 1024.6 9.0
2014-Oct-21 15:10N 49°34' E 170°17'0 0.0 1025.6 9.0
2014-Oct-21 08:10N 49°34' E 170°17'2 0.6 1026.0 9.2
2014-Oct-21 04:10N 49°36' E 170°20'3 1.0 1024.7 9.2
2014-Oct-21 01:10N 49°39' E 170°21'0 0.0 1023.8 9.0
2014-Oct-20 23:10N 49°39' E 170°21'0 0.0 1023.3 8.9
2014-Oct-20 21:10N 49°39' E 170°21'0 0.0 1022.5 8.9
2014-Oct-20 19:10N 49°39' E 170°21'0 0.0 1020.5 8.8
2014-Oct-20 17:10N 49°39' E 170°21'3 2.5 1018.5 8.6
2014-Oct-20 16:10N 49°40' E 170°25'1918.6 1017.2 8.6
2014-Oct-20 15:10N 49°54' E 170°43'0 0.0 1016.4 8.6
2014-Oct-20 10:10N 49°54' E 170°43'0 0.0 1011.6 8.6
2014-Oct-20 09:10N 49°54' E 170°43'0 0.0 1010.4 8.6
2014-Oct-20 08:10N 49°54' E 170°43'0 0.0 1009.3 8.6
2014-Oct-20 05:10N 49°54' E 170°43'0 0.0 1005.8 8.6
2014-Oct-20 04:10N 49°54' E 170°43'0 0.0 1004.9 8.6
2014-Oct-20 02:10N 49°54' E 170°43'0 0.0 1003.0 8.6
2014-Oct-20 00:10N 49°54' E 170°43'0 0.0 1003.5 8.6
2014-Oct-19 21:10N 49°54' E 170°43'0 0.0 1004.5 8.6
2014-Oct-19 18:10N 49°54' E 170°43'6 6.0 1004.9 8.7
2014-Oct-19 17:10N 49°58' E 170°50'0 0.0 1004.5 8.7
2014-Oct-19 16:10N 49°58' E 170°50'0 0.0 1004.0 8.7
2014-Oct-19 13:10N 49°58' E 170°50'1 0.2 1003.9 8.8
2014-Oct-19 10:10N 49°58' E 170°51'8 2.6 1003.1 8.8
2014-Oct-19 07:10N 50°04' E 170°58'0 0.0 1002.7 8.8
2014-Oct-19 04:10N 50°04' E 170°58'1 0.3 1001.8 8.8
2014-Oct-19 01:10N 50°05' E 170°57'0 0.0 1002.6 8.8
2014-Oct-19 00:10N 50°05' E 170°57'6 3.2 1003.4 8.8
2014-Oct-18 22:10N 50°06' E 171°07'0 0.0 1004.3 8.8
2014-Oct-18 21:10N 50°06' E 171°07'1 0.5 1004.8 8.8
2014-Oct-18 19:10N 50°06' E 171°08'0 0.0 1004.5 8.8
2014-Oct-18 18:10N 50°06' E 171°08'0 0.0 1005.0 8.8
2014-Oct-18 17:10N 50°06' E 171°08'0 0.3 1005.5 8.8
2014-Oct-18 16:10N 50°06' E 171°09'2 2.3 1005.4 8.8
2014-Oct-18 15:10N 50°08' E 171°09'6 2.9 1006.1 8.9
2014-Oct-18 13:10N 50°11' E 171°17'0 0.0 1006.8 8.9
2014-Oct-18 09:10N 50°11' E 171°17'0 0.0 1007.0 8.9
2014-Oct-18 08:10N 50°11' E 171°17'0 0.0 1008.1 8.9
2014-Oct-18 07:10N 50°11' E 171°17'0 0.0 1009.5 8.9
2014-Oct-18 05:10N 50°11' E 171°17'6 0.8 1012.3 8.9
2014-Oct-17 22:10N 50°10' E 171°26'2 0.4 1023.7 8.9
2014-Oct-17 18:10N 50°11' E 171°27'6 3.0 1027.3 8.9
2014-Oct-17 16:10N 50°14' E 171°36'0 0.0 1027.5 8.9
2014-Oct-17 15:10N 50°14' E 171°36'0 0.0 1028.2 8.9
2014-Oct-17 14:10N 50°14' E 171°36'0 0.0 1028.9 8.9
2014-Oct-17 12:10N 50°14' E 171°36'0 0.0 1030.0 8.9
2014-Oct-17 08:10N 50°14' E 171°36'0 0.3 1029.9 8.9
2014-Oct-17 07:10N 50°14' E 171°36'6 1.1 1029.3 9.0
2014-Oct-17 02:10N 50°15' E 171°44'4 4.3 1026.7 9.0
2014-Oct-17 01:10N 50°18' E 171°49'9 1.1 1026.4 9.0
2014-Oct-16 17:10N 50°23' E 172°01'0 0.0 1018.8 9.0
2014-Oct-16 13:10N 50°23' E 172°01'8 0.6 1013.8 9.1
2014-Oct-15 23:10N 50°31' E 172°01'0 0.0 981.8 9.6
2014-Oct-15 18:10N 50°31' E 172°01'2 0.9 986.8 9.7
2014-Oct-15 16:10N 50°29' E 171°60'2 1.8 989.7 9.7
2014-Oct-15 15:10N 50°29' E 172°03'0 0.0 991.7 9.7
2014-Oct-15 14:10N 50°29' E 172°03'0 0.0 994.6 9.7
2014-Oct-15 08:10N 50°29' E 172°03'1 0.3 1010.6 9.8
2014-Oct-15 06:10N 50°29' E 172°02'0 0.0 1013.1 9.9
2014-Oct-15 03:10N 50°29' E 172°02'0 0.0 1014.5 9.9
2014-Oct-15 02:10N 50°29' E 172°02'0 0.0 1014.1 9.9
2014-Oct-15 01:10N 50°29' E 172°02'0 0.0 1014.6 9.9
2014-Oct-14 23:10N 50°29' E 172°02'1 1.0 1015.1 9.8
2014-Oct-14 22:10N 50°30' E 172°04'2 0.8 1014.7 9.8
2014-Oct-14 20:10N 50°30' E 172°06'2 0.8 1013.5 9.8
2014-Oct-14 17:10N 50°32' E 172°08'3 1.4 1011.4 9.8
2014-Oct-14 15:10N 50°33' E 172°05'0 0.0 1009.8 9.8
2014-Oct-14 13:10N 50°33' E 172°05'1 0.2 1008.5 9.8
2014-Oct-14 10:10N 50°34' E 172°06'   1008.1 9.8
Track history (hours):
 
Tides and Currents Weather Stations Pressure Air Temp Water Temp Dewpoint Dewpoint Depression Visibility Wind Speed Wind Dir Waves Ship Positions

Drifting buoy 21539

Last reported at 2014-Oct-24 10:10 UTC. Time now 2014-Oct-24 12:12 UTC.
Position N 49°24' E 170°05'.

Barometer 1022.0 mb
Water temperature 9.2 ° C

Date/timePositionNaut miles runAvg speedWind from/ knotsBaromVisibWave heightAir tempDewpointWater temp
2014-Oct-24 10:10N 49°24' E 170°05'0 0.0 1022.0 9.2
2014-Oct-24 09:10N 49°24' E 170°05'1 1.5 1022.0 9.2
2014-Oct-24 08:10N 49°24' E 170°08'0 0.0 1021.8 9.2
2014-Oct-24 04:10N 49°24' E 170°08'0 0.0 1021.2 9.3
2014-Oct-24 03:10N 49°24' E 170°08'0 0.0 1020.9 9.3
2014-Oct-24 02:10N 49°24' E 170°08'1 0.3 1020.8 9.3
2014-Oct-23 22:10N 49°25' E 170°09'1 0.1 1021.4 9.2
2014-Oct-23 17:10N 49°25' E 170°09'0 0.0 1019.7 9.2
2014-Oct-23 15:10N 49°25' E 170°09'0 0.0 1019.3 9.2
2014-Oct-23 14:10N 49°25' E 170°09'0 0.0 1019.3 9.2
2014-Oct-23 10:10N 49°25' E 170°09'0 0.0 1018.0 9.3
2014-Oct-23 09:10N 49°25' E 170°09'1 0.4 1017.2 9.2
2014-Oct-23 06:10N 49°26' E 170°11'0 0.0 1015.8 9.2
2014-Oct-23 05:10N 49°26' E 170°11'7 1.5 1015.1 9.2
2014-Oct-23 00:10N 49°33' E 170°13'0 0.0 1016.2 9.2
2014-Oct-22 22:10N 49°33' E 170°13'0 0.0 1016.2 9.2
2014-Oct-22 19:10N 49°33' E 170°13'0 0.0 1016.5 9.2
2014-Oct-22 17:10N 49°33' E 170°13'0 0.0 1016.7 9.1
2014-Oct-22 16:10N 49°33' E 170°13'0 0.0 1016.8 9.1
2014-Oct-22 13:10N 49°33' E 170°13'0 0.0 1019.0 9.1
2014-Oct-22 09:10N 49°33' E 170°13'0 0.0 1020.6 9.2
2014-Oct-22 07:10N 49°33' E 170°13'0 0.0 1021.8 9.2
2014-Oct-22 03:10N 49°33' E 170°13'0 0.0 1022.8 9.1
2014-Oct-22 01:10N 49°33' E 170°13'0 0.0 1024.0 9.1
2014-Oct-21 17:10N 49°33' E 170°13'2 1.2 1024.6 9.0
2014-Oct-21 15:10N 49°34' E 170°17'0 0.0 1025.6 9.0
2014-Oct-21 08:10N 49°34' E 170°17'2 0.6 1026.0 9.2
2014-Oct-21 04:10N 49°36' E 170°20'3 1.0 1024.7 9.2
2014-Oct-21 01:10N 49°39' E 170°21'0 0.0 1023.8 9.0
2014-Oct-20 23:10N 49°39' E 170°21'0 0.0 1023.3 8.9
2014-Oct-20 21:10N 49°39' E 170°21'0 0.0 1022.5 8.9
2014-Oct-20 19:10N 49°39' E 170°21'0 0.0 1020.5 8.8
2014-Oct-20 17:10N 49°39' E 170°21'3 2.5 1018.5 8.6
2014-Oct-20 16:10N 49°40' E 170°25'1918.6 1017.2 8.6
2014-Oct-20 15:10N 49°54' E 170°43'0 0.0 1016.4 8.6
2014-Oct-20 10:10N 49°54' E 170°43'0 0.0 1011.6 8.6
2014-Oct-20 09:10N 49°54' E 170°43'0 0.0 1010.4 8.6
2014-Oct-20 08:10N 49°54' E 170°43'0 0.0 1009.3 8.6
2014-Oct-20 05:10N 49°54' E 170°43'0 0.0 1005.8 8.6
2014-Oct-20 04:10N 49°54' E 170°43'0 0.0 1004.9 8.6
2014-Oct-20 02:10N 49°54' E 170°43'0 0.0 1003.0 8.6
2014-Oct-20 00:10N 49°54' E 170°43'0 0.0 1003.5 8.6
2014-Oct-19 21:10N 49°54' E 170°43'0 0.0 1004.5 8.6
2014-Oct-19 18:10N 49°54' E 170°43'6 6.0 1004.9 8.7
2014-Oct-19 17:10N 49°58' E 170°50'0 0.0 1004.5 8.7
2014-Oct-19 16:10N 49°58' E 170°50'0 0.0 1004.0 8.7
2014-Oct-19 13:10N 49°58' E 170°50'1 0.2 1003.9 8.8
2014-Oct-19 10:10N 49°58' E 170°51'8 2.6 1003.1 8.8
2014-Oct-19 07:10N 50°04' E 170°58'0 0.0 1002.7 8.8
2014-Oct-19 04:10N 50°04' E 170°58'1 0.3 1001.8 8.8
2014-Oct-19 01:10N 50°05' E 170°57'0 0.0 1002.6 8.8
2014-Oct-19 00:10N 50°05' E 170°57'6 3.2 1003.4 8.8
2014-Oct-18 22:10N 50°06' E 171°07'0 0.0 1004.3 8.8
2014-Oct-18 21:10N 50°06' E 171°07'1 0.5 1004.8 8.8
2014-Oct-18 19:10N 50°06' E 171°08'0 0.0 1004.5 8.8
2014-Oct-18 18:10N 50°06' E 171°08'0 0.0 1005.0 8.8
2014-Oct-18 17:10N 50°06' E 171°08'0 0.3 1005.5 8.8
2014-Oct-18 16:10N 50°06' E 171°09'2 2.3 1005.4 8.8
2014-Oct-18 15:10N 50°08' E 171°09'6 2.9 1006.1 8.9
2014-Oct-18 13:10N 50°11' E 171°17'0 0.0 1006.8 8.9
2014-Oct-18 09:10N 50°11' E 171°17'0 0.0 1007.0 8.9
2014-Oct-18 08:10N 50°11' E 171°17'0 0.0 1008.1 8.9
2014-Oct-18 07:10N 50°11' E 171°17'0 0.0 1009.5 8.9
2014-Oct-18 05:10N 50°11' E 171°17'6 0.8 1012.3 8.9
2014-Oct-17 22:10N 50°10' E 171°26'2 0.4 1023.7 8.9
2014-Oct-17 18:10N 50°11' E 171°27'6 3.0 1027.3 8.9
2014-Oct-17 16:10N 50°14' E 171°36'0 0.0 1027.5 8.9
2014-Oct-17 15:10N 50°14' E 171°36'0 0.0 1028.2 8.9
2014-Oct-17 14:10N 50°14' E 171°36'0 0.0 1028.9 8.9
2014-Oct-17 12:10N 50°14' E 171°36'0 0.0 1030.0 8.9
2014-Oct-17 08:10N 50°14' E 171°36'0 0.3 1029.9 8.9
2014-Oct-17 07:10N 50°14' E 171°36'6 1.1 1029.3 9.0
2014-Oct-17 02:10N 50°15' E 171°44'4 4.3 1026.7 9.0
2014-Oct-17 01:10N 50°18' E 171°49'9 1.1 1026.4 9.0
2014-Oct-16 17:10N 50°23' E 172°01'0 0.0 1018.8 9.0
2014-Oct-16 13:10N 50°23' E 172°01'8 0.6 1013.8 9.1
2014-Oct-15 23:10N 50°31' E 172°01'0 0.0 981.8 9.6
2014-Oct-15 18:10N 50°31' E 172°01'2 0.9 986.8 9.7
2014-Oct-15 16:10N 50°29' E 171°60'2 1.8 989.7 9.7
2014-Oct-15 15:10N 50°29' E 172°03'0 0.0 991.7 9.7
2014-Oct-15 14:10N 50°29' E 172°03'0 0.0 994.6 9.7
2014-Oct-15 08:10N 50°29' E 172°03'1 0.3 1010.6 9.8
2014-Oct-15 06:10N 50°29' E 172°02'0 0.0 1013.1 9.9
2014-Oct-15 03:10N 50°29' E 172°02'0 0.0 1014.5 9.9
2014-Oct-15 02:10N 50°29' E 172°02'0 0.0 1014.1 9.9
2014-Oct-15 01:10N 50°29' E 172°02'0 0.0 1014.6 9.9
2014-Oct-14 23:10N 50°29' E 172°02'1 1.0 1015.1 9.8
2014-Oct-14 22:10N 50°30' E 172°04'2 0.8 1014.7 9.8
2014-Oct-14 20:10N 50°30' E 172°06'2 0.8 1013.5 9.8
2014-Oct-14 17:10N 50°32' E 172°08'3 1.4 1011.4 9.8
2014-Oct-14 15:10N 50°33' E 172°05'0 0.0 1009.8 9.8
2014-Oct-14 13:10N 50°33' E 172°05'1 0.2 1008.5 9.8
2014-Oct-14 10:10N 50°34' E 172°06'   1008.1 9.8

Dump ship's entire track history